Hlavní strana
METAR-TAF:

METAR-TAF

Letiště :

Tébessa, Alžírsko

zeměpisná šířka: 35-29N, zeměpisná délka: 008-08E, výška: 813 m

Aktuální stav počasí

Zpráva byla vytvořena před 51 minutami, v 04:00 UTC
Východojihovýchodní vítr 6 kt
Teplota -1°C
Vlhkost vzduchu 74%
Tlak 1023 hPa
Viditelnost 10 km a více
Žádná oblačnost pod 1500 m, nevyskytují se cumulonimby.

METAR: DABS 250400Z 11006KT CAVOK M01/M05 Q1023

Čas: 05:51 (04:51 UTC)

Předpověď počasí

Zpráva byla vytvořena před 5 hodinami a 51 minutami, v 23:00 UTC
Předpověď platná od 25 v 00 UTC do 25 v 24 UTC
Severozápadní vítr 8 kt
Viditelnost 10 km a více
Žádná oblačnost pod 1500 m, nevyskytují se cumulonimby.
Pravděpodobnost 30% :
Dočasný
od 25 v 02 UTC do 25 v 08 UTC
Viditelnost: 2000 m
Polojasno ve výšce 1000 ft
kouřmo

TAF: DABS 242300Z 2500/2524 31008KT CAVOK PROB30 TEMPO 2502/2508 2000 BR SCT010

Stav a předpovědi počasí z více než 4 000 letišť (zprávy METAR a TAF).

Červené a žluté tečky na mapě představují dostupné meteorologické stanice.

Když kurzor umístíte na tečku, zobrazí se název stanice.

Pak kliknutím zobrazíte stav a předpověď počasí.

Chcete-li změnit mapu, kliknutím na zelené tlačítko se znaménkem +mapu přiblížíte, kliknutím na zelené tlačítko se znaménkem – mapu oddálíte a kliknutím na zelené šipky přejdete na sousední mapy.


METAR-TAF: